Time;durP1;ratioP1;P1;durP2;ratioP2;P2;SDS_P1;SDS_P2;PMS_P1;PMS_P2;Temp;Humidity;BMP_temperature;BMP_pressure;BME280_temperature;BME280_humidity;BME280_pressure;Samples;Min_cycle;Max_cycle;Signal;HPM_P1;HPM_P2
2021/04/06 00:00:29;;;;;;;3.63;1.75;;;24.40;88.00;;;;;;5051632;28;20037;-57
2021/04/06 00:03:02;;;;;;;5.05;1.90;;;24.40;88.20;;;;;;5052088;28;20029;-56
2021/04/06 00:05:30;;;;;;;6.90;1.90;;;24.30;88.60;;;;;;5051930;28;20093;-59
2021/04/06 00:08:00;;;;;;;2.50;1.30;;;24.30;88.40;;;;;;5052432;28;20021;-53
2021/04/06 00:10:43;;;;;;;8.80;1.95;;;24.30;88.20;;;;;;5052145;28;20510;-61
2021/04/06 00:13:11;;;;;;;3.05;1.45;;;24.20;88.80;;;;;;5051968;28;20033;-63
2021/04/06 00:15:40;;;;;;;2.85;1.95;;;24.30;88.70;;;;;;5051470;28;20112;-57
2021/04/06 00:18:10;;;;;;;3.88;1.48;;;24.30;88.50;;;;;;5051442;28;20091;-57
2021/04/06 00:20:40;;;;;;;4.07;1.88;;;24.30;88.80;;;;;;5051403;28;20112;-51
2021/04/06 00:23:09;;;;;;;16.67;3.40;;;24.20;88.80;;;;;;5050923;28;20041;-60
2021/04/06 00:25:40;;;;;;;7.82;2.17;;;24.30;89.10;;;;;;5051330;28;20391;-63
2021/04/06 00:28:16;;;;;;;5.87;2.30;;;24.20;89.10;;;;;;5051724;28;20040;-57
2021/04/06 00:30:48;;;;;;;4.95;2.40;;;24.30;88.80;;;;;;5051410;28;20033;-60
2021/04/06 00:33:44;;;;;;;3.05;1.63;;;24.30;89.10;;;;;;5051698;28;20041;-55
2021/04/06 00:36:11;;;;;;;2.83;1.45;;;24.30;89.10;;;;;;5042098;28;20655;-67
2021/04/06 00:38:43;;;;;;;7.55;1.85;;;24.30;88.50;;;;;;5051354;28;20051;-68
2021/04/06 00:41:15;;;;;;;8.02;2.08;;;24.30;88.50;;;;;;5051343;28;20053;-65
2021/04/06 00:43:44;;;;;;;4.28;1.90;;;24.40;88.20;;;;;;5051644;28;20067;-64
2021/04/06 00:46:19;;;;;;;4.53;1.60;;;24.30;88.40;;;;;;5051012;28;20453;-68
2021/04/06 00:48:48;;;;;;;3.60;1.67;;;24.40;88.50;;;;;;5033072;28;20029;-63
2021/04/06 00:51:18;;;;;;;6.90;1.63;;;24.40;88.00;;;;;;5050997;28;20045;-60
2021/04/06 00:53:58;;;;;;;1.75;1.23;;;24.40;88.70;;;;;;5050504;28;20052;-59
2021/04/06 00:56:36;;;;;;;3.10;1.30;;;24.50;88.10;;;;;;5050934;28;20748;-61
2021/04/06 00:59:08;;;;;;;5.40;1.73;;;24.50;88.10;;;;;;5050764;28;20059;-54
2021/04/06 01:01:47;;;;;;;3.13;1.42;;;24.60;87.60;;;;;;5050498;28;20044;-59
2021/04/06 01:04:19;;;;;;;3.53;1.58;;;24.60;87.70;;;;;;5050565;28;20112;-58
2021/04/06 01:06:59;;;;;;;;;;;24.60;87.60;;;;;;5051303;28;20029;-60
2021/04/06 01:09:37;;;;;;;3.55;1.67;;;24.60;87.60;;;;;;5050561;28;19908;-62
2021/04/06 01:12:06;;;;;;;2.53;1.45;;;24.70;87.60;;;;;;5050483;28;20525;-59
2021/04/06 01:14:39;;;;;;;4.00;1.50;;;24.60;87.70;;;;;;5050484;28;20039;-61
2021/04/06 01:17:08;;;;;;;3.63;1.70;;;24.60;87.50;;;;;;5050197;28;20111;-58
2021/04/06 01:19:36;;;;;;;3.60;1.40;;;24.70;87.30;;;;;;5049748;28;20317;-65
2021/04/06 01:22:09;;;;;;;2.60;1.17;;;24.70;87.20;;;;;;5050353;28;20029;-62
2021/04/06 01:24:38;;;;;;;2.95;1.40;;;24.90;86.80;;;;;;5050210;28;20040;-60
2021/04/06 01:27:15;;;;;;;2.47;1.40;;;24.90;87.10;;;;;;5049996;28;20695;-59
2021/04/06 01:29:57;;;;;;;4.22;1.23;;;24.90;87.10;;;;;;5050016;28;20506;-60
2021/04/06 01:32:28;;;;;;;7.68;2.33;;;25.10;86.20;;;;;;5050199;28;20037;-56
2021/04/06 01:34:56;;;;;;;2.70;1.83;;;25.10;85.70;;;;;;5048786;28;20017;-51
2021/04/06 01:37:28;;;;;;;6.95;1.55;;;25.20;85.50;;;;;;5032013;28;20075;-53
2021/04/06 01:39:58;;;;;;;5.03;1.33;;;25.20;85.80;;;;;;5050116;28;20040;-62
2021/04/06 01:42:30;;;;;;;4.65;1.45;;;25.20;85.60;;;;;;5049855;28;20121;-57
2021/04/06 01:45:00;;;;;;;2.65;1.85;;;25.30;85.70;;;;;;5047258;28;20566;-55
2021/04/06 01:47:28;;;;;;;2.45;1.30;;;25.40;85.10;;;;;;5049543;28;20064;-52
2021/04/06 01:49:58;;;;;;;2.55;1.65;;;25.50;84.80;;;;;;5049748;28;20035;-63
2021/04/06 01:52:25;;;;;;;1.92;1.27;;;25.50;84.50;;;;;;5032020;28;20036;-67
2021/04/06 01:55:02;;;;;;;4.53;1.77;;;25.50;84.90;;;;;;5049899;28;20057;-54
2021/04/06 01:57:36;;;;;;;6.22;1.55;;;25.50;84.30;;;;;;5049940;28;20479;-62
2021/04/06 02:00:22;;;;;;;4.53;1.70;;;25.50;84.30;;;;;;5032476;28;20041;-68
2021/04/06 02:02:49;;;;;;;4.30;1.52;;;25.50;84.40;;;;;;5031716;28;20025;-55
2021/04/06 02:05:18;;;;;;;2.47;1.30;;;25.50;84.40;;;;;;5030776;28;20129;-56
2021/04/06 02:07:47;;;;;;;4.22;1.30;;;25.40;85.00;;;;;;5049493;28;20509;-54
2021/04/06 02:10:16;;;;;;;3.28;1.75;;;25.40;85.10;;;;;;5031807;28;20036;-59
2021/04/06 02:12:46;;;;;;;2.35;1.30;;;25.40;84.90;;;;;;5049566;28;20028;-67
2021/04/06 02:15:15;;;;;;;3.63;1.80;;;25.30;85.00;;;;;;5049510;28;20032;-58
2021/04/06 02:17:53;;;;;;;2.58;1.20;;;25.30;84.60;;;;;;5049086;28;20086;-61
2021/04/06 02:20:26;;;;;;;3.08;1.40;;;25.20;85.40;;;;;;5049087;28;20108;-59
2021/04/06 02:23:01;;;;;;;4.68;2.17;;;25.20;85.50;;;;;;5049331;28;20036;-56
2021/04/06 02:25:30;;;;;;;2.83;1.55;;;25.20;85.80;;;;;;5048911;28;20044;-60
2021/04/06 02:27:58;;;;;;;3.22;1.40;;;25.20;86.30;;;;;;5049334;28;20032;-53
2021/04/06 02:30:31;;;;;;;3.30;1.50;;;25.20;86.10;;;;;;5048960;28;20057;-58
2021/04/06 02:33:01;;;;;;;2.53;1.23;;;25.30;86.30;;;;;;5031936;28;20066;-60
2021/04/06 02:35:28;;;;;;;2.88;1.23;;;25.40;85.80;;;;;;5048617;28;20046;-57
2021/04/06 02:37:56;;;;;;;2.35;1.08;;;25.40;85.80;;;;;;5049308;28;20037;-58
2021/04/06 02:40:25;;;;;;;3.50;1.42;;;25.40;85.50;;;;;;5048930;28;20029;-58
2021/04/06 02:42:57;;;;;;;2.33;1.25;;;25.50;85.10;;;;;;5031034;28;20072;-55
2021/04/06 02:45:30;;;;;;;5.40;1.40;;;25.50;85.40;;;;;;5048349;28;20017;-54
2021/04/06 02:48:18;;;;;;;2.20;1.33;;;25.60;84.60;;;;;;5048318;28;20170;-56
2021/04/06 02:50:45;;;;;;;2.85;1.27;;;25.60;84.90;;;;;;5033732;28;20387;-61
2021/04/06 02:53:17;;;;;;;3.63;1.65;;;25.70;85.20;;;;;;5048686;28;20075;-64
2021/04/06 02:55:44;;;;;;;;;;;25.70;83.80;;;;;;5031085;28;20128;-52
2021/04/06 02:58:15;;;;;;;3.58;1.27;;;25.70;84.30;;;;;;5048062;28;19912;-55
2021/04/06 03:00:42;;;;;;;;;;;25.60;84.40;;;;;;5049007;28;20070;-58
2021/04/06 03:03:21;;;;;;;1.73;1.30;;;25.60;84.70;;;;;;5030667;28;20434;-56
2021/04/06 03:06:09;;;;;;;2.17;1.15;;;25.50;85.10;;;;;;5030772;28;20045;-63
2021/04/06 03:08:39;;;;;;;3.20;1.33;;;25.40;85.30;;;;;;5048097;28;20171;-61
2021/04/06 03:11:12;;;;;;;3.42;1.67;;;25.30;85.60;;;;;;5048736;28;20136;-56
2021/04/06 03:13:43;;;;;;;6.50;1.75;;;25.40;85.80;;;;;;5048297;28;20041;-63
2021/04/06 03:16:11;;;;;;;3.92;1.15;;;25.40;85.70;;;;;;5048691;28;20056;-60
2021/04/06 03:18:45;;;;;;;2.88;1.20;;;25.50;85.80;;;;;;5048546;28;20032;-66
2021/04/06 03:21:13;;;;;;;3.72;1.48;;;25.50;86.10;;;;;;5048521;28;20325;-64
2021/04/06 03:23:41;;;;;;;2.20;1.50;;;25.50;85.80;;;;;;5048116;28;20487;-60
2021/04/06 03:26:08;;;;;;;2.65;1.33;;;25.50;85.80;;;;;;5030466;28;20124;-63
2021/04/06 03:28:39;;;;;;;2.53;0.93;;;25.50;85.70;;;;;;5048593;28;20036;-57
2021/04/06 03:31:22;;;;;;;1.88;1.40;;;25.50;85.80;;;;;;5048274;28;20032;-52
2021/04/06 03:33:49;;;;;;;;;;;25.50;85.90;;;;;;5048754;28;20029;-68
2021/04/06 03:36:28;;;;;;;3.10;1.17;;;25.50;85.90;;;;;;5048015;28;19909;-66
2021/04/06 03:39:05;;;;;;;1.98;1.00;;;25.50;85.80;;;;;;5030785;28;20048;-68
2021/04/06 03:41:34;;;;;;;2.72;1.35;;;25.40;86.10;;;;;;5035897;28;20057;-67
2021/04/06 03:44:10;;;;;;;4.72;1.50;;;25.50;86.50;;;;;;5028599;28;20057;-62
2021/04/06 03:46:39;;;;;;;3.58;1.40;;;25.40;86.40;;;;;;5028517;28;20052;-66
2021/04/06 03:49:18;;;;;;;2.22;1.05;;;25.30;86.90;;;;;;5028534;28;20127;-57
2021/04/06 03:52:15;;;;;;;2.65;1.23;;;25.20;87.10;;;;;;5028616;28;20034;-55
2021/04/06 03:54:50;;;;;;;2.67;1.10;;;25.20;87.10;;;;;;4991151;28;20368;-59
2021/04/06 03:57:29;;;;;;;3.10;1.10;;;25.10;87.20;;;;;;5028808;28;20045;-62
2021/04/06 03:59:56;;;;;;;2.50;1.20;;;25.10;87.70;;;;;;5032295;28;20072;-57
2021/04/06 04:02:24;;;;;;;5.18;1.50;;;25.00;87.80;;;;;;5032584;28;20032;-56
2021/04/06 04:04:56;;;;;;;3.35;1.15;;;25.00;88.70;;;;;;5031764;28;20025;-61
2021/04/06 04:07:24;;;;;;;3.78;1.65;;;25.00;88.50;;;;;;5031514;28;20533;-55
2021/04/06 04:09:51;;;;;;;2.45;1.20;;;25.00;89.50;;;;;;5031620;28;20029;-63
2021/04/06 04:12:19;;;;;;;10.43;1.40;;;24.90;88.90;;;;;;5031893;28;20037;-59
2021/04/06 04:14:46;;;;;;;2.38;0.93;;;24.90;90.10;;;;;;5031526;28;20080;-61
2021/04/06 04:17:13;;;;;;;1.95;1.10;;;24.90;89.70;;;;;;5031467;28;20030;-62
2021/04/06 04:19:41;;;;;;;4.25;1.58;;;24.80;90.00;;;;;;5031230;28;20033;-59
2021/04/06 04:22:08;;;;;;;4.20;1.52;;;24.80;90.10;;;;;;5031374;28;20487;-63
2021/04/06 04:24:35;;;;;;;4.88;2.20;;;24.90;90.20;;;;;;5031046;28;20032;-61
2021/04/06 04:27:03;;;;;;;3.97;1.40;;;24.90;90.20;;;;;;5030938;28;20033;-68
2021/04/06 04:29:30;;;;;;;2.33;1.17;;;24.80;90.00;;;;;;5031246;28;20033;-59
2021/04/06 04:31:57;;;;;;;3.60;1.25;;;24.80;90.10;;;;;;5031981;28;20409;-60
2021/04/06 04:34:25;;;;;;;2.92;1.20;;;24.90;89.80;;;;;;5029778;28;20123;-60
2021/04/06 04:36:53;;;;;;;6.20;1.48;;;24.90;89.80;;;;;;5013345;28;20506;-63
2021/04/06 04:39:20;;;;;;;4.40;1.25;;;24.90;90.00;;;;;;5014027;28;20029;-53
2021/04/06 04:41:52;;;;;;;3.72;1.10;;;24.90;90.00;;;;;;5031103;28;20499;-58
2021/04/06 04:44:20;;;;;;;3.70;1.10;;;24.90;89.40;;;;;;5028118;28;20057;-57
2021/04/06 04:46:48;;;;;;;4.10;1.55;;;24.90;89.40;;;;;;5030856;28;20546;-59
2021/04/06 04:49:15;;;;;;;6.40;1.45;;;24.90;89.40;;;;;;5031212;28;20044;-55
2021/04/06 04:51:42;;;;;;;5.10;1.50;;;24.90;89.60;;;;;;5031194;28;20079;-59
2021/04/06 04:54:10;;;;;;;3.42;1.08;;;24.90;89.60;;;;;;5031306;28;20037;-54
2021/04/06 04:56:38;;;;;;;4.07;1.15;;;24.90;89.20;;;;;;5031291;28;20038;-56
2021/04/06 04:59:05;;;;;;;8.27;2.10;;;24.90;89.60;;;;;;5031622;28;20088;-52
2021/04/06 05:01:33;;;;;;;3.55;1.42;;;24.90;89.70;;;;;;5031258;28;20137;-57
2021/04/06 05:04:00;;;;;;;3.15;1.35;;;24.90;89.50;;;;;;5031167;28;20207;-57
2021/04/06 05:06:28;;;;;;;3.05;1.10;;;24.90;89.90;;;;;;5031535;28;20164;-58
2021/04/06 05:08:55;;;;;;;5.07;1.40;;;24.90;90.00;;;;;;5030913;28;20427;-59
2021/04/06 05:11:25;;;;;;;4.47;1.27;;;24.90;90.00;;;;;;5030757;28;20475;-58
2021/04/06 05:13:53;;;;;;;5.80;1.63;;;24.80;89.80;;;;;;5030553;28;20033;-57
2021/04/06 05:16:20;;;;;;;5.47;1.52;;;24.80;89.80;;;;;;5012433;28;20049;-63
2021/04/06 05:18:49;;;;;;;4.72;1.58;;;24.90;89.80;;;;;;5031034;28;20034;-67
2021/04/06 05:21:17;;;;;;;4.95;1.85;;;24.80;89.70;;;;;;5030825;28;20522;-58
2021/04/06 05:23:44;;;;;;;3.25;0.90;;;24.80;89.70;;;;;;5030622;28;20120;-61
2021/04/06 05:26:11;;;;;;;4.93;1.35;;;24.80;89.80;;;;;;5030345;28;20033;-63
2021/04/06 05:28:40;;;;;;;4.25;1.33;;;24.70;89.90;;;;;;5030455;28;20109;-64
2021/04/06 05:31:07;;;;;;;3.08;0.98;;;24.80;90.00;;;;;;5030519;28;20026;-55
2021/04/06 05:33:35;;;;;;;1.90;1.08;;;24.70;90.00;;;;;;5029834;28;20029;-53
2021/04/06 05:36:06;;;;;;;7.80;1.23;;;24.70;90.10;;;;;;5030087;28;20087;-63
2021/04/06 05:38:33;;;;;;;2.05;1.10;;;24.80;90.40;;;;;;5012024;28;20037;-64
2021/04/06 05:41:01;;;;;;;3.50;1.10;;;24.80;90.10;;;;;;5030028;28;20136;-62
2021/04/06 05:43:28;;;;;;;2.42;0.93;;;24.70;90.10;;;;;;5012103;28;20124;-51
2021/04/06 05:45:57;;;;;;;1.10;0.77;;;24.70;90.20;;;;;;5029857;28;20478;-65
2021/04/06 05:48:24;;;;;;;2.10;1.10;;;24.70;90.20;;;;;;5029438;28;20074;-61
2021/04/06 05:50:53;;;;;;;4.30;1.13;;;24.70;90.10;;;;;;5029637;28;20447;-63
2021/04/06 05:53:22;;;;;;;3.53;1.23;;;24.70;90.00;;;;;;5029796;28;20025;-64
2021/04/06 05:55:50;;;;;;;3.10;1.30;;;24.70;90.20;;;;;;5029492;28;20029;-64
2021/04/06 05:58:17;;;;;;;4.22;1.08;;;24.70;90.20;;;;;;5029503;28;20033;-61
2021/04/06 06:00:44;;;;;;;2.80;0.85;;;24.80;90.20;;;;;;5029682;28;20491;-65
2021/04/06 06:03:12;;;;;;;3.08;0.93;;;24.70;90.30;;;;;;5029612;28;20036;-62
2021/04/06 06:05:42;;;;;;;2.33;1.02;;;24.70;90.30;;;;;;5028933;28;20412;-64
2021/04/06 06:08:14;;;;;;;2.45;1.08;;;24.80;90.40;;;;;;5029286;28;20045;-61
2021/04/06 06:10:43;;;;;;;4.82;1.25;;;24.80;90.20;;;;;;5029170;28;20039;-61
2021/04/06 06:13:24;;;;;;;4.05;1.35;;;24.90;90.10;;;;;;5029237;28;20033;-62
2021/04/06 06:16:09;;;;;;;2.05;0.90;;;25.00;90.00;;;;;;5011476;28;20037;-66
2021/04/06 06:18:59;;;;;;;2.17;0.75;;;25.00;89.60;;;;;;5029053;28;20033;-59
2021/04/06 06:21:51;;;;;;;2.65;1.08;;;25.10;89.20;;;;;;5010536;28;20033;-64
2021/04/06 06:24:28;;;;;;;2.63;1.25;;;25.10;89.00;;;;;;5029185;28;20045;-69
2021/04/06 06:26:57;;;;;;;1.30;0.77;;;25.10;88.60;;;;;;5029074;28;20407;-69
2021/04/06 06:29:31;;;;;;;2.53;1.00;;;25.00;88.90;;;;;;5028974;28;20030;-67
2021/04/06 06:32:00;;;;;;;2.22;1.08;;;25.00;88.70;;;;;;5011313;28;20037;-68
2021/04/06 06:34:35;;;;;;;2.78;1.20;;;25.00;88.90;;;;;;5028898;28;20029;-66
2021/04/06 06:37:08;;;;;;;4.72;1.30;;;25.00;88.80;;;;;;5011574;28;20096;-67
2021/04/06 06:39:40;;;;;;;3.78;1.15;;;25.00;88.40;;;;;;5029059;28;20037;-66
2021/04/06 06:42:12;;;;;;;4.75;1.50;;;24.90;89.10;;;;;;5029617;28;20097;-60
2021/04/06 06:44:40;;;;;;;3.17;1.00;;;24.90;88.70;;;;;;5029344;28;20027;-57
2021/04/06 06:47:11;;;;;;;5.63;1.35;;;24.90;88.90;;;;;;5011269;28;20076;-64
2021/04/06 06:49:41;;;;;;;3.22;0.93;;;24.90;88.80;;;;;;5027487;28;20057;-57
2021/04/06 06:52:24;;;;;;;3.92;0.98;;;24.80;89.40;;;;;;5029147;28;20035;-56
2021/04/06 06:54:58;;;;;;;2.20;0.88;;;24.70;89.30;;;;;;5028916;28;20028;-61
2021/04/06 06:57:34;;;;;;;1.98;0.75;;;24.70;89.80;;;;;;5029044;28;20026;-59
2021/04/06 07:00:13;;;;;;;2.05;1.33;;;24.70;90.00;;;;;;5011269;28;20067;-59
2021/04/06 07:02:42;;;;;;;1.85;0.75;;;24.60;90.10;;;;;;5028783;28;20420;-64
2021/04/06 07:05:18;;;;;;;3.30;1.33;;;24.60;90.20;;;;;;5028489;28;20052;-57
2021/04/06 07:07:52;;;;;;;3.33;1.45;;;24.60;90.40;;;;;;5028589;28;20094;-59
2021/04/06 07:10:22;;;;;;;4.03;1.25;;;24.50;90.30;;;;;;5028592;28;20689;-62
2021/04/06 07:12:58;;;;;;;4.45;1.33;;;24.50;90.40;;;;;;5028606;28;20101;-65
2021/04/06 07:15:27;;;;;;;2.78;1.10;;;24.50;90.40;;;;;;5028502;28;20049;-59
2021/04/06 07:18:07;;;;;;;5.55;1.23;;;24.50;90.60;;;;;;5028288;28;20030;-68
2021/04/06 07:20:38;;;;;;;3.42;1.10;;;24.40;90.60;;;;;;5028221;28;20021;-66
2021/04/06 07:23:11;;;;;;;2.88;1.10;;;24.40;90.70;;;;;;5028251;28;20029;-62
2021/04/06 07:25:43;;;;;;;3.25;1.00;;;24.30;90.80;;;;;;5028592;28;20056;-64
2021/04/06 07:28:15;;;;;;;4.38;1.50;;;24.30;90.40;;;;;;4994857;28;20476;-68
2021/04/06 07:30:46;;;;;;;2.47;0.93;;;24.30;90.70;;;;;;5028815;28;20060;-63
2021/04/06 07:33:15;;;;;;;3.30;1.00;;;24.30;90.70;;;;;;5030450;28;20117;-62
2021/04/06 07:35:44;;;;;;;2.92;1.35;;;24.30;90.90;;;;;;5032160;28;20274;-64
2021/04/06 07:38:12;;;;;;;3.28;1.25;;;24.20;90.80;;;;;;5032294;28;20025;-65
2021/04/06 07:40:40;;;;;;;6.68;1.30;;;24.30;91.00;;;;;;5032441;28;20203;-63
2021/04/06 07:43:07;;;;;;;4.40;1.38;;;24.30;90.80;;;;;;5032487;28;20178;-63
2021/04/06 07:45:35;;;;;;;2.25;1.00;;;24.20;90.80;;;;;;5046202;28;20029;-63
2021/04/06 07:48:02;;;;;;;2.15;0.70;;;24.20;91.00;;;;;;5051735;28;20108;-66
2021/04/06 07:50:48;;;;;;;2.67;1.10;;;24.20;91.10;;;;;;5051496;28;20502;-67
2021/04/06 07:53:27;;;;;;;3.42;1.17;;;24.10;91.10;;;;;;5052082;28;20131;-67
2021/04/06 07:55:59;;;;;;;5.95;1.25;;;24.10;91.00;;;;;;5051947;28;20033;-64
2021/04/06 07:58:47;;;;;;;2.30;0.95;;;24.10;91.00;;;;;;5051920;28;20033;-67
2021/04/06 08:01:35;;;;;;;2.00;0.90;;;24.10;91.10;;;;;;5051499;28;20029;-56
2021/04/06 08:04:05;;;;;;;4.00;1.40;;;24.10;91.00;;;;;;5051634;28;20119;-67
2021/04/06 08:06:45;;;;;;;3.00;1.00;;;24.10;91.20;;;;;;5052014;28;20123;-68
2021/04/06 08:09:31;;;;;;;1.83;0.70;;;24.00;91.30;;;;;;5051771;28;20387;-61
2021/04/06 08:12:19;;;;;;;1.95;0.90;;;24.00;91.30;;;;;;5051525;28;20036;-60
2021/04/06 08:14:53;;;;;;;3.00;1.00;;;24.00;91.30;;;;;;5051690;28;20021;-65
2021/04/06 08:17:26;;;;;;;4.18;1.50;;;24.00;91.20;;;;;;5051667;28;20051;-67
2021/04/06 08:20:16;;;;;;;6.40;1.55;;;24.00;91.10;;;;;;5051080;28;20494;-65
2021/04/06 08:22:55;;;;;;;2.90;1.08;;;24.00;91.10;;;;;;5051664;28;20430;-64
2021/04/06 08:25:22;;;;;;;3.67;1.20;;;24.00;91.10;;;;;;5051575;28;20491;-62
2021/04/06 08:27:58;;;;;;;3.10;1.35;;;23.90;91.20;;;;;;5051738;28;20438;-64
2021/04/06 08:30:34;;;;;;;3.13;0.93;;;23.90;91.10;;;;;;5051266;28;20032;-68
2021/04/06 08:33:02;;;;;;;1.90;0.90;;;23.90;91.20;;;;;;5051416;28;20091;-62
2021/04/06 08:35:57;;;;;;;2.42;1.00;;;23.90;91.30;;;;;;5033252;28;20041;-63
2021/04/06 08:38:25;;;;;;;3.22;1.15;;;23.90;91.40;;;;;;5051598;28;20092;-65
2021/04/06 08:41:24;;;;;;;3.85;1.13;;;23.90;91.20;;;;;;5051430;28;20052;-63
2021/04/06 08:43:54;;;;;;;2.50;0.75;;;23.90;91.30;;;;;;5030000;28;20036;-65
2021/04/06 08:46:39;;;;;;;3.90;1.08;;;23.90;91.40;;;;;;5051046;28;20082;-57
2021/04/06 08:49:15;;;;;;;4.75;1.38;;;23.90;91.30;;;;;;5033286;28;20566;-66
2021/04/06 08:51:52;;;;;;;4.63;1.23;;;23.80;91.30;;;;;;5051217;28;20037;-61
2021/04/06 08:54:29;;;;;;;2.53;1.00;;;23.80;91.20;;;;;;5033205;28;20025;-61
2021/04/06 08:57:01;;;;;;;3.95;0.90;;;23.80;91.30;;;;;;5051004;28;20091;-67
2021/04/06 08:59:46;;;;;;;1.77;0.90;;;23.80;91.30;;;;;;5041654;28;20198;-61
2021/04/06 09:02:17;;;;;;;3.40;1.00;;;23.80;91.40;;;;;;5021591;28;20071;-61
2021/04/06 09:04:47;;;;;;;2.33;0.88;;;23.80;91.40;;;;;;5024854;28;20144;-59
2021/04/06 09:07:28;;;;;;;2.63;0.80;;;23.80;91.30;;;;;;5024623;28;20553;-57
2021/04/06 09:10:04;;;;;;;3.55;0.88;;;23.80;91.30;;;;;;5038307;28;20486;-61
2021/04/06 09:12:33;;;;;;;3.78;1.10;;;23.80;91.30;;;;;;5048368;28;20048;-61
2021/04/06 09:15:02;;;;;;;2.78;0.95;;;23.80;91.20;;;;;;5038520;28;20032;-64
2021/04/06 09:17:34;;;;;;;2.28;1.10;;;23.90;91.30;;;;;;5038650;28;20021;-56
2021/04/06 09:20:11;;;;;;;3.50;1.10;;;23.80;91.20;;;;;;5035143;28;20499;-56
2021/04/06 09:22:41;;;;;;;2.13;0.70;;;23.80;91.20;;;;;;5044965;28;20402;-60
2021/04/06 09:25:21;;;;;;;1.80;0.80;;;23.90;91.20;;;;;;5037394;28;20036;-59
2021/04/06 09:28:08;;;;;;;2.63;1.10;;;23.90;91.20;;;;;;5036682;28;20539;-68
2021/04/06 09:30:47;;;;;;;3.15;1.02;;;23.90;91.10;;;;;;5021682;28;20025;-59
2021/04/06 09:33:20;;;;;;;3.85;1.33;;;23.90;91.10;;;;;;5037780;28;20029;-63
2021/04/06 09:35:50;;;;;;;2.67;1.08;;;23.90;91.10;;;;;;5038504;28;20038;-61
2021/04/06 09:38:24;;;;;;;5.57;1.30;;;23.80;91.10;;;;;;5036917;28;20030;-58
2021/04/06 09:40:52;;;;;;;3.25;1.02;;;23.80;91.00;;;;;;5045307;28;20051;-62
2021/04/06 09:43:20;;;;;;;3.55;1.30;;;23.80;91.10;;;;;;5040025;28;20111;-61
2021/04/06 09:45:50;;;;;;;1.92;0.73;;;23.80;91.00;;;;;;5044885;28;20383;-61
2021/04/06 09:48:20;;;;;;;3.17;1.13;;;23.80;91.10;;;;;;5037987;28;20119;-71
2021/04/06 09:51:03;;;;;;;4.15;0.95;;;23.80;91.10;;;;;;5039549;28;20025;-62
2021/04/06 09:53:35;;;;;;;4.07;1.30;;;23.80;91.20;;;;;;5037096;28;20845;-58
2021/04/06 09:56:03;;;;;;;5.63;1.70;;;23.90;91.10;;;;;;5036608;28;20025;-55
2021/04/06 09:58:33;;;;;;;5.72;1.58;;;23.90;91.10;;;;;;5041508;28;20045;-55
2021/04/06 10:01:01;;;;;;;5.03;1.73;;;23.90;91.10;;;;;;5008546;28;20403;-64
2021/04/06 10:03:29;;;;;;;8.07;3.08;;;23.90;91.00;;;;;;5044395;28;20033;-64
2021/04/06 10:06:08;;;;;;;5.03;1.83;;;23.90;90.90;;;;;;5038315;28;20030;-63
2021/04/06 10:08:35;;;;;;;8.57;2.70;;;23.90;90.90;;;;;;5033911;28;20127;-60
2021/04/06 10:11:03;;;;;;;6.53;2.30;;;23.90;91.00;;;;;;5041758;28;20021;-64
2021/04/06 10:13:32;;;;;;;6.72;2.67;;;23.90;90.90;;;;;;5042353;28;20038;-62
2021/04/06 10:16:07;;;;;;;8.30;2.65;;;23.90;91.00;;;;;;5042039;28;20040;-61
2021/04/06 10:18:46;;;;;;;3.88;2.05;;;23.90;90.90;;;;;;5035231;28;20122;-65
2021/04/06 10:21:21;;;;;;;8.77;2.78;;;23.90;91.00;;;;;;5035576;28;20493;-61
2021/04/06 10:23:48;;;;;;;10.52;3.13;;;23.90;90.90;;;;;;5041052;28;20081;-61
2021/04/06 10:26:21;;;;;;;13.90;3.25;;;23.90;91.00;;;;;;5040989;28;20480;-62
2021/04/06 10:29:09;;;;;;;5.95;2.08;;;23.90;91.00;;;;;;5036140;28;20156;-60
2021/04/06 10:31:48;;;;;;;11.00;3.63;;;23.90;91.00;;;;;;5046631;28;20514;-63
2021/04/06 10:34:20;;;;;;;11.27;3.30;;;23.90;91.00;;;;;;5043071;28;20116;-63
2021/04/06 10:37:05;;;;;;;8.67;2.30;;;23.90;91.00;;;;;;5037025;28;20025;-64
2021/04/06 10:39:36;;;;;;;9.95;3.45;;;23.90;90.90;;;;;;5036144;28;20091;-61
2021/04/06 10:42:06;;;;;;;8.05;2.70;;;23.90;90.90;;;;;;5019122;28;20076;-62
2021/04/06 10:44:35;;;;;;;9.25;2.70;;;23.90;90.90;;;;;;5035339;28;20044;-60
2021/04/06 10:47:02;;;;;;;11.10;3.20;;;23.90;91.00;;;;;;5040725;28;20127;-66
2021/04/06 10:49:30;;;;;;;8.98;2.70;;;23.90;90.90;;;;;;5032398;28;20029;-58
2021/04/06 10:52:10;;;;;;;9.18;2.97;;;23.90;90.90;;;;;;5024769;28;20029;-59
2021/04/06 10:54:37;;;;;;;12.75;3.35;;;23.90;90.90;;;;;;5030626;28;20029;-60
2021/04/06 10:57:06;;;;;;;9.80;3.15;;;23.90;90.90;;;;;;5037587;28;20028;-58
2021/04/06 10:59:37;;;;;;;16.48;3.78;;;23.90;90.90;;;;;;5025769;28;20113;-60
2021/04/06 11:02:05;;;;;;;10.03;3.07;;;23.90;90.90;;;;;;5042515;28;20033;-60
2021/04/06 11:04:42;;;;;;;9.02;2.75;;;23.90;90.70;;;;;;5033118;28;20258;-66
2021/04/06 11:07:10;;;;;;;7.00;2.72;;;23.90;90.90;;;;;;5043973;28;20094;-64
2021/04/06 11:09:48;;;;;;;8.35;2.78;;;23.90;91.00;;;;;;5040093;28;20427;-55
2021/04/06 11:12:17;;;;;;;9.07;2.92;;;23.90;90.90;;;;;;5040842;28;20037;-57
2021/04/06 11:14:47;;;;;;;9.23;3.28;;;23.90;90.90;;;;;;5047060;28;20583;-60
2021/04/06 11:17:15;;;;;;;9.68;3.00;;;23.90;90.90;;;;;;5048261;28;20036;-60
2021/04/06 11:19:48;;;;;;;9.38;3.42;;;23.80;90.90;;;;;;5040701;28;20033;-60
2021/04/06 11:22:17;;;;;;;9.77;3.13;;;23.90;90.90;;;;;;5038982;28;20632;-56
2021/04/06 11:24:50;;;;;;;11.55;3.20;;;23.90;90.90;;;;;;5036983;28;20026;-62
2021/04/06 11:27:18;;;;;;;8.55;2.85;;;23.90;90.90;;;;;;5041117;28;20345;-56
2021/04/06 11:29:47;;;;;;;10.25;3.20;;;23.90;90.90;;;;;;5036527;28;20059;-55
2021/04/06 11:32:22;;;;;;;6.90;2.47;;;23.90;91.00;;;;;;5035971;28;20041;-60
2021/04/06 11:34:51;;;;;;;11.55;2.80;;;23.80;90.90;;;;;;5017551;28;20025;-53
2021/04/06 11:37:19;;;;;;;10.52;3.47;;;23.80;90.90;;;;;;5038232;28;20395;-59
2021/04/06 11:39:49;;;;;;;7.47;2.67;;;23.80;91.00;;;;;;5039398;28;20039;-57
2021/04/06 11:42:18;;;;;;;6.53;2.88;;;23.80;90.90;;;;;;5035804;28;20041;-55
2021/04/06 11:44:46;;;;;;;8.75;2.85;;;23.80;90.90;;;;;;5034415;28;20140;-56
2021/04/06 11:47:14;;;;;;;7.38;2.50;;;23.80;91.00;;;;;;5034848;28;20049;-53
2021/04/06 11:49:41;;;;;;;8.35;2.78;;;23.80;91.00;;;;;;5035380;28;20388;-53
2021/04/06 11:52:10;;;;;;;10.02;3.22;;;23.80;91.00;;;;;;5041936;28;20025;-59
2021/04/06 11:54:38;;;;;;;7.25;2.42;;;23.80;91.00;;;;;;5025067;28;20048;-61
2021/04/06 11:57:09;;;;;;;10.95;3.20;;;23.80;90.90;;;;;;5036524;28;20649;-56
2021/04/06 11:59:37;;;;;;;8.65;2.92;;;23.80;90.80;;;;;;5021153;28;20056;-55
2021/04/06 12:02:05;;;;;;;8.13;2.67;;;23.80;90.90;;;;;;5025596;28;20039;-61
2021/04/06 12:04:32;;;;;;;5.78;2.30;;;23.80;91.00;;;;;;5031878;28;20034;-61
2021/04/06 12:07:00;;;;;;;11.85;2.83;;;23.70;90.90;;;;;;5035885;28;20123;-59
2021/04/06 12:09:28;;;;;;;6.60;2.38;;;23.70;90.90;;;;;;5020795;28;20029;-62
2021/04/06 12:11:55;;;;;;;6.43;2.50;;;23.70;90.90;;;;;;5035781;28;20037;-59
2021/04/06 12:14:23;;;;;;;7.90;2.75;;;23.70;90.80;;;;;;5034410;28;20081;-60
2021/04/06 12:16:50;;;;;;;7.75;2.85;;;23.70;90.80;;;;;;5013675;28;20033;-56
2021/04/06 12:19:18;;;;;;;9.65;3.03;;;23.70;90.90;;;;;;5025051;28;20032;-52
2021/04/06 12:21:46;;;;;;;6.82;2.60;;;23.70;90.70;;;;;;5043975;28;20036;-60
2021/04/06 12:24:13;;;;;;;10.02;3.55;;;23.70;90.90;;;;;;5038704;28;20103;-59
2021/04/06 12:26:41;;;;;;;9.70;2.80;;;23.70;91.00;;;;;;5046258;28;20135;-59
2021/04/06 12:29:08;;;;;;;9.55;3.22;;;23.70;90.90;;;;;;5028310;28;20079;-63
2021/04/06 12:31:36;;;;;;;8.52;3.00;;;23.70;90.90;;;;;;5041192;28;20025;-58
2021/04/06 12:34:04;;;;;;;7.95;3.00;;;23.70;90.90;;;;;;5040165;28;20097;-53
2021/04/06 12:36:31;;;;;;;6.18;2.53;;;23.60;90.90;;;;;;5043352;28;20024;-67
2021/04/06 12:38:59;;;;;;;6.10;2.35;;;23.70;91.00;;;;;;5040822;28;20371;-64
2021/04/06 12:41:26;;;;;;;8.13;2.72;;;23.60;90.90;;;;;;5014078;28;20050;-58
2021/04/06 12:43:54;;;;;;;6.22;3.00;;;23.60;90.80;;;;;;5038452;28;20502;-62
2021/04/06 12:46:21;;;;;;;8.25;3.03;;;23.60;90.70;;;;;;5042302;28;20041;-53
2021/04/06 12:48:49;;;;;;;5.65;2.65;;;23.60;90.90;;;;;;5037765;28;20482;-55
2021/04/06 12:51:16;;;;;;;7.47;2.78;;;23.60;90.90;;;;;;5039824;28;20029;-61
2021/04/06 12:53:44;;;;;;;6.78;2.53;;;23.60;90.90;;;;;;5042783;28;20125;-57
2021/04/06 12:56:11;;;;;;;6.03;2.60;;;23.60;90.90;;;;;;5043690;28;20021;-54
2021/04/06 12:58:39;;;;;;;6.00;2.63;;;23.60;90.80;;;;;;5044172;28;20045;-60
2021/04/06 13:01:07;;;;;;;5.75;2.72;;;23.60;90.90;;;;;;5020137;28;20602;-59
2021/04/06 13:03:34;;;;;;;6.47;2.20;;;23.50;90.80;;;;;;5042084;28;20490;-55
2021/04/06 13:06:02;;;;;;;8.77;2.70;;;23.50;90.90;;;;;;5043191;28;20029;-61
2021/04/06 13:08:30;;;;;;;8.80;2.65;;;23.50;90.80;;;;;;5042087;28;20040;-59
2021/04/06 13:10:57;;;;;;;7.32;3.03;;;23.50;90.90;;;;;;5036985;28;20030;-58